This is the latest recevied weather packets stored in our database for station/object KB3CAT. If no packets are shown the sender has not sent any weather packets the latest 10 day(s).
| Time | Temp. | Humidity | Pressure | Rain* | Wind** | Luminosity | Snow |
|---|---|---|---|---|---|---|---|
| 1777672996 | 15.56° C | 50% | 1009.8 hPa | 0 mm | - | - | - |
| 1777671816 | 15.56° C | 53% | 1009.4 hPa | 0 mm | - | - | - |
| 1777671196 | 15.56° C | 48% | 1009.5 hPa | 0 mm | - | - | - |
| 1777668196 | 16.11° C | 45% | 1009.4 hPa | 0 mm | - | - | - |
| 1777666396 | 16.67° C | 43% | 1009.3 hPa | 0 mm | - | - | - |
| 1777665795 | 17.22° C | 43% | 1009.6 hPa | 0 mm | - | - | - |
| 1777663996 | 16.11° C | 46% | 1009.9 hPa | 0 mm | - | - | - |
| 1777660996 | 16.11° C | 45% | 1010.8 hPa | 0 mm | - | - | - |
| 1777658616 | 16.11° C | 44% | 1011.2 hPa | 0 mm | - | - | - |
| 1777657996 | 16.11° C | 44% | 1011.3 hPa | 0 mm | - | - | - |
| 1777654996 | 16.11° C | 45% | 1011.9 hPa | 0 mm | - | - | - |
| 1777651996 | 15.56° C | 48% | 1012.5 hPa | 0 mm | - | - | - |
| 1777650816 | 13.89° C | 46% | 1012.8 hPa | 0 mm | - | - | - |
| 1777647796 | 12.22° C | 49% | 1013.5 hPa | 0 mm | - | - | - |
| 1777642396 | 11.11° C | 64% | 1013.9 hPa | 0 mm | - | - | - |
| 1777641796 | 11.11° C | 65% | 1014 hPa | 0 mm | - | - | - |
| 1777633396 | 2.78° C | 93% | 1014.3 hPa | 0 mm | - | - | - |
| 1777628596 | 1.67° C | 92% | 1013.5 hPa | 0 mm | - | - | - |
| 1777626816 | 1.67° C | 92% | 1013.5 hPa | 0 mm | - | - | - |
| 1777623196 | 2.78° C | 91% | 1013.4 hPa | 0 mm | - | - | - |
| 1777620796 | 2.78° C | 90% | 1013.4 hPa | 0 mm | - | - | - |
| 1777620196 | 2.78° C | 89% | 1013.3 hPa | 0 mm | - | - | - |
| 1777617196 | 2.78° C | 88% | 1013.2 hPa | 0 mm | - | - | - |
| 1777615996 | 3.33° C | 86% | 1013.4 hPa | 0 mm | - | - | - |
| 1777615416 | 3.89° C | 86% | 1013.5 hPa | 0 mm | - | - | - |
* Rain latest hour (hover to see other rain measurements)
** Current wind speed in m/s (hover to see current wind gust speed)